Flight Track Log - Related Links

Times and Time Zones

All times are in EDT time to prevent confusion due to time zone crossing. See the AAL2360 flight status page for this flight to view local times or setup timezone preferences in your user account.

Time Position Orientation Groundspeed Altitude Reporting Facility
EDT Latitude Longitude Course Direction KTS MPH feet Rate Location/Type
Wed 08:12:04 PM 32.8833 -97.0500 331° Northwest 164 189 1,700  Level Dallas / Fort Worth TRACON
Wed 08:13:04 PM 32.8333 -97.0667 196° South 200 230 3,700 1,952 Climbing Dallas / Fort Worth TRACON
Wed 08:14:00 PM 32.8793 -96.8000 North  Level FlightAware Approximate
Wed 08:14:10 PM 32.7667 -97.1000 203° Southwest 246 283 5,800  Level Dallas / Fort Worth TRACON
Wed 08:15:00 PM 33.0048 -96.8129 333° Northwest  Level FlightAware Approximate
Wed 08:15:10 PM 32.7833 -97.2000 281° West 281 323 8,800  Level Dallas / Fort Worth TRACON
Wed 08:15:51 PM 32.7956 -97.2528 285° West 283 326 9,600 1,118 Climbing Fort Worth Center
Wed 08:16:00 PM 33.1181 -96.8842 331° Northwest  Level FlightAware Approximate
Wed 08:16:52 PM 32.8689 -97.2772 344° North 269 310 10,700  Level Fort Worth Center
Wed 08:17:00 PM 33.2299 -96.9588 331° Northwest  Level FlightAware Approximate
Wed 08:17:51 PM 32.9794 -97.2625 North 312 359 11,700  Level Fort Worth Center
Wed 08:18:51 PM 33.0794 -97.2275 16° North 391 450 13,600 2,300 Climbing Fort Worth Center
Wed 08:19:51 PM 33.2089 -97.1850 15° North 423 487 16,300 2,500 Climbing Fort Worth Center
Wed 08:20:51 PM 33.3300 -97.1500 14° North 439 505 18,600 2,000 Climbing Fort Worth Center
Wed 08:21:51 PM 33.4489 -97.1097 16° North 444 511 20,300 1,884 Climbing Fort Worth Center
Wed 08:22:52 PM 33.5614 -97.0944 North 438 504 22,400 1,700 Climbing Fort Worth Center
Wed 08:23:51 PM 33.6886 -97.0814 North 453 521 23,700 1,563 Climbing Fort Worth Center
Wed 08:24:51 PM 33.8244 -97.0608 North 458 527 25,500 1,650 Climbing Fort Worth Center
Wed 08:25:51 PM 33.9517 -97.0453 North 458 527 27,000 1,300 Climbing Fort Worth Center
Wed 08:26:51 PM 34.0808 -97.0272 North 465 535 28,100 1,300 Climbing Fort Worth Center
Wed 08:27:51 PM 34.2039 -96.9992 11° North 445 512 29,600 1,300 Climbing Fort Worth Center
Wed 08:28:51 PM 34.3289 -96.9383 22° Northeast 459 528 30,700 850 Climbing Fort Worth Center
Wed 08:29:51 PM 34.4539 -96.8794 21° North 465 535 31,300 750 Climbing Fort Worth Center
Wed 08:30:51 PM 34.5767 -96.8133 24° Northeast 470 541 32,200 750 Climbing Fort Worth Center
Wed 08:31:51 PM 34.6953 -96.7544 22° Northeast 470 541 32,800 350 Climbing Fort Worth Center
Wed 08:32:51 PM 34.8117 -96.6903 24° Northeast 465 535 32,900 100 Climbing Fort Worth Center
Wed 08:33:51 PM 34.9344 -96.6361 20° North 465 535 33,000 50 Climbing Fort Worth Center
Wed 08:34:51 PM 35.0531 -96.5817 21° North 460 529 33,000  Level Fort Worth Center
Wed 08:35:51 PM 35.1717 -96.5222 22° Northeast 455 524 33,000  Level Fort Worth Center
Wed 08:37:38 PM 35.3833 -96.4192 22° Northeast 461 531 33,000  Level Kansas City Center
Wed 08:38:39 PM 35.5058 -96.3819 14° North 456 525 33,000 -49 Level Kansas City Center
Wed 08:39:40 PM 35.6289 -96.3503 12° North 455 524 32,900 -344 Descending Kansas City Center
Wed 08:40:41 PM 35.7544 -96.3153 13° North 460 529 32,300 -443 Descending Kansas City Center
Wed 08:41:42 PM 35.8753 -96.2906 North 462 532 32,000 -145 Descending Kansas City Center
Wed 08:42:45 PM 36.0017 -96.2603 11° North 461 531 32,000  Level Kansas City Center
Wed 08:43:46 PM 36.1536 -96.2183 13° North 463 533 32,000 -49 Level Kansas City Center
Wed 08:44:47 PM 36.2839 -96.1814 13° North 471 542 31,900  Descending Kansas City Center
Wed 08:45:48 PM 36.4164 -96.1531 10° North 477 549 32,000 49 Climbing Kansas City Center
Wed 08:46:50 PM 36.5478 -96.1483 North 472 543 32,000  Level Kansas City Center
Wed 08:47:52 PM 36.6831 -96.1533 358° North 476 548 32,000 48 Level Kansas City Center
Wed 08:48:54 PM 36.8167 -96.1678 355° North 477 549 32,100  Climbing Kansas City Center
Wed 08:49:55 PM 36.9319 -96.2386 334° Northwest 465 535 32,000 -50 Descending Kansas City Center
Wed 08:50:55 PM 37.0419 -96.3147 331° Northwest 453 521 32,000  Level Kansas City Center
Wed 08:51:57 PM 37.1489 -96.3861 332° Northwest 440 506 32,000  Level Kansas City Center
Wed 08:52:58 PM 37.2492 -96.4569 331° Northwest 440 506 32,000  Level Kansas City Center
Wed 08:53:58 PM 37.3783 -96.5436 332° Northwest 439 505 32,000  Level Kansas City Center
Wed 08:55:02 PM 37.4847 -96.6167 331° Northwest 437 503 32,000  Level Kansas City Center
Wed 08:56:03 PM 37.5914 -96.6897 332° Northwest 438 504 32,000  Level Kansas City Center
Wed 08:57:04 PM 37.7028 -96.7636 332° Northwest 451 519 32,000  Level Kansas City Center
Wed 08:58:05 PM 37.8142 -96.8406 331° Northwest 457 526 32,000  Level Kansas City Center
Wed 08:59:06 PM 37.9292 -96.9192 332° Northwest 470 541 32,000  Level Kansas City Center
Wed 09:00:07 PM 38.0447 -96.9994 331° Northwest 476 548 32,000  Level Kansas City Center
Wed 09:01:09 PM 38.1589 -97.0794 331° Northwest 472 543 32,000  Level Kansas City Center
Wed 09:02:09 PM 38.2969 -97.1761 331° Northwest 474 545 32,000  Level Kansas City Center
Wed 09:03:10 PM 38.4117 -97.2558 331° Northwest 474 545 32,000  Level Kansas City Center
Wed 09:04:15 PM 38.5261 -97.3367 331° Northwest 473 544 32,000  Level Kansas City Center
Wed 09:05:15 PM 38.6608 -97.3603 352° North 502 578 32,000  Level Kansas City Center
Wed 09:06:16 PM 38.8003 -97.3436 North 505 581 32,000  Level Kansas City Center
Wed 09:07:18 PM 38.9400 -97.3278 North 505 581 32,000  Level Kansas City Center
Wed 09:08:20 PM 39.1028 -97.3103 North 508 585 32,000  Level Kansas City Center
Wed 09:09:20 PM 39.2381 -97.2961 North 508 585 32,000  Level Kansas City Center
Wed 09:10:21 PM 39.3972 -97.2786 North 511 588 32,000  Level Kansas City Center
Wed 09:11:22 PM 39.5244 -97.2647 North 509 586 32,000  Level Kansas City Center
Wed 09:12:26 PM 39.6633 -97.2894 352° North 501 577 32,000  Level Kansas City Center
Wed 09:13:10 PM 39.7758 -97.3103 352° North 510 587 32,000  Level Minneapolis Center
Wed 09:14:11 PM 39.9194 -97.3272 355° North 516 594 32,000  Level Minneapolis Center
Wed 09:15:13 PM 40.0614 -97.3450 355° North 513 590 32,000  Level Minneapolis Center
Wed 09:16:15 PM 40.2322 -97.3708 353° North 515 593 32,000  Level Minneapolis Center
Wed 09:17:17 PM 40.3753 -97.3836 356° North 515 593 32,000  Level Minneapolis Center
Wed 09:18:19 PM 40.5181 -97.3983 356° North 515 593 32,000  Level Minneapolis Center
Wed 09:19:21 PM 40.6611 -97.4094 357° North 516 594 32,000  Level Minneapolis Center
Wed 09:20:23 PM 40.8044 -97.3725 11° North 523 602 32,000  Level Minneapolis Center
Wed 09:21:25 PM 40.9608 -97.3403 North 520 598 32,000  Level Minneapolis Center
Wed 09:22:27 PM 41.1069 -97.3108 North 524 603 32,000  Level Minneapolis Center
Wed 09:23:28 PM 41.2522 -97.2814 North 526 605 32,000  Level Minneapolis Center
Wed 09:24:30 PM 41.3975 -97.2519 North 525 604 32,000  Level Minneapolis Center
Wed 09:25:32 PM 41.5433 -97.2217 North 527 606 32,000  Level Minneapolis Center
Wed 09:26:34 PM 41.6889 -97.1925 North 526 605 32,000  Level Minneapolis Center
Wed 09:27:36 PM 41.8642 -97.1564 North 528 608 32,000  Level Minneapolis Center
Wed 09:28:38 PM 42.0039 -97.1044 15° North 526 605 32,000  Level Minneapolis Center
Wed 09:29:39 PM 42.0994 -96.9664 47° Northeast 508 585 32,000 195 Level Minneapolis Center
Wed 09:30:41 PM 42.1469 -96.7944 70° East 489 563 32,400 435 Climbing Minneapolis Center
Wed 09:31:43 PM 42.1936 -96.6269 69° East 481 554 32,900 290 Climbing Minneapolis Center
Wed 09:32:45 PM 42.2431 -96.4606 68° East 477 549 33,000  Climbing Minneapolis Center
Wed 09:33:46 PM 42.2925 -96.2914 68° East 480 552 32,900  Descending Minneapolis Center
Wed 09:34:48 PM 42.3425 -96.1192 69° East 486 559 33,000 48 Climbing Minneapolis Center
Wed 09:35:50 PM 42.3914 -95.9469 69° East 488 562 33,000 48 Level Minneapolis Center
Wed 09:36:52 PM 42.4489 -95.7428 69° East 484 557 33,100  Climbing Minneapolis Center
Wed 09:37:53 PM 42.4958 -95.5692 70° East 487 560 33,000 -49 Descending Minneapolis Center
Wed 09:38:55 PM 42.5428 -95.3986 69° East 485 558 33,000  Level Minneapolis Center
Wed 09:39:57 PM 42.5906 -95.2336 68° East 477 549 33,000 -48 Level Minneapolis Center
Wed 09:40:59 PM 42.6364 -95.0661 70° East 474 545 32,900 -49 Descending Minneapolis Center
Wed 09:42:00 PM 42.6831 -94.8964 69° East 477 549 32,900 49 Level Minneapolis Center
Wed 09:43:02 PM 42.7294 -94.7256 70° East 479 551 33,000 48 Climbing Minneapolis Center
Wed 09:44:04 PM 42.7814 -94.5233 71° East 486 559 33,000  Level Minneapolis Center
Wed 09:45:05 PM 42.8272 -94.3500 70° East 490 564 33,000  Level Minneapolis Center
Wed 09:46:07 PM 42.8728 -94.1789 70° East 486 559 33,000  Level Minneapolis Center
Wed 09:47:21 PM 42.9194 -94.0058 70° East 489 563 33,000 44 Level Minneapolis Center
Wed 09:48:23 PM 42.9733 -93.7975 70° East 488 562 33,100  Climbing Minneapolis Center
Wed 09:49:24 PM 43.0178 -93.6239 71° East 487 560 33,000 -49 Descending Minneapolis Center
Wed 09:50:26 PM 43.0706 -93.4167 71° East 486 559 33,000 -49 Level Minneapolis Center
Wed 09:51:27 PM 43.0892 -93.2436 82° East 471 542 32,900 -49 Descending Minneapolis Center
Wed 09:52:29 PM 43.0769 -93.0722 96° East 456 525 32,900 48 Level Minneapolis Center
Wed 09:53:31 PM 43.0656 -92.9019 95° East 454 522 33,000 98 Climbing Minneapolis Center
Wed 09:54:32 PM 43.0536 -92.7269 95° East 461 531 33,100 49 Climbing Minneapolis Center
Wed 09:55:34 PM 43.0408 -92.5506 96° East 468 539 33,100  Level Minneapolis Center
Wed 09:56:35 PM 43.0278 -92.3742 96° East 469 540 33,100 -341 Level Minneapolis Center
Wed 09:57:37 PM 43.0119 -92.1625 96° East 471 542 32,400 -829 Descending Minneapolis Center
Wed 09:58:38 PM 43.0000 -91.9864 95° East 469 540 31,400 -683 Descending Minneapolis Center
Wed 09:59:40 PM 42.9864 -91.8072 96° East 471 542 31,000 -195 Descending Minneapolis Center
Wed 10:00:41 PM 42.9731 -91.6292 96° East 469 540 31,000 -49 Level Minneapolis Center
Wed 10:01:43 PM 42.9578 -91.4489 97° East 471 542 30,900  Descending Minneapolis Center
Wed 10:02:44 PM 42.9414 -91.2683 97° East 475 547 31,000 49 Climbing Minneapolis Center
Wed 10:03:46 PM 42.9269 -91.0850 96° East 484 557 31,000 -49 Level Minneapolis Center
Wed 10:04:47 PM 42.9111 -90.9039 97° East 484 557 30,900 -404 Descending Minneapolis Center
Wed 10:05:15 PM 42.9028 -90.7942 96° East 488 562 30,400 -1,348 Descending Chicago Center
Wed 10:06:16 PM 42.8867 -90.6125 97° East 485 558 28,900 -1,623 Descending Chicago Center
Wed 10:07:17 PM 42.8706 -90.4347 97° East 477 549 27,100 -1,770 Descending Chicago Center
Wed 10:08:18 PM 42.8547 -90.2628 97° East 462 532 25,300 -1,426 Descending Chicago Center
Wed 10:09:19 PM 42.8381 -90.0953 98° East 451 519 24,200 -934 Descending Chicago Center
Wed 10:10:20 PM 42.7897 -89.9136 110° East 451 519 23,400 -1,328 Descending Chicago Center
Wed 10:11:21 PM 42.7433 -89.7603 112° Southeast 444 511 21,500 -1,820 Descending Chicago Center
Wed 10:12:22 PM 42.7044 -89.6175 110° East 413 475 19,700 -1,770 Descending Chicago Center
Wed 10:13:23 PM 42.6633 -89.4772 112° Southeast 404 465 17,900 -1,770 Descending Chicago Center
Wed 10:14:24 PM 42.6233 -89.3392 111° Southeast 396 456 16,100 -1,574 Descending Chicago Center
Wed 10:15:25 PM 42.5853 -89.2050 111° Southeast 385 443 14,700 -1,033 Descending Chicago Center
Wed 10:16:26 PM 42.5486 -89.0792 112° Southeast 364 419 14,000 -590 Descending Chicago Center
Wed 10:17:27 PM 42.5125 -88.9589 112° Southeast 348 400 13,500 -787 Descending Chicago Center
Wed 10:18:28 PM 42.4794 -88.8475 112° Southeast 326 375 12,400 -1,230 Descending Chicago Center
Wed 10:19:29 PM 42.4386 -88.7125 112° Southeast 330 380 11,000 -1,230 Descending Chicago Center
Wed 10:20:30 PM 42.4053 -88.6036 112° Southeast 319 367 9,900 -934 Descending Chicago Center
Wed 10:21:31 PM 42.3703 -88.4931 113° Southeast 320 368 9,100 -885 Descending Chicago Center
Wed 10:22:32 PM 42.3378 -88.3825 112° Southeast 317 365 8,100 -1,180 Descending Chicago Center
Wed 10:23:33 PM 42.2817 -88.2950 131° Southeast 295 339 6,700 -1,279 Descending Chicago Center
Wed 10:24:34 PM 42.2325 -88.2103 128° Southeast 290 334 5,500 -787 Descending Chicago Center
Wed 10:25:35 PM 42.1794 -88.1456 138° Southeast 270 311 5,100 -393 Descending Chicago Center

Login

Don't have an account? Register now (free) for customized features, flight alerts, and more!